sensor_id;sensor_type;location;lat;lon;timestamp;P1;durP1;ratioP1;P2;durP2;ratioP2
1258;SDS011;619;51.472;6.628;2022-10-16T00:01:15;3.33;;;3.03;;
1258;SDS011;619;51.472;6.628;2022-10-16T00:03:43;5.47;;;3.10;;
1258;SDS011;619;51.472;6.628;2022-10-16T00:06:13;7.43;;;4.20;;
1258;SDS011;619;51.472;6.628;2022-10-16T00:08:40;6.23;;;3.13;;
1258;SDS011;619;51.472;6.628;2022-10-16T00:11:09;5.73;;;3.00;;
1258;SDS011;619;51.472;6.628;2022-10-16T00:13:38;3.93;;;2.80;;
1258;SDS011;619;51.472;6.628;2022-10-16T00:16:08;3.13;;;2.83;;
1258;SDS011;619;51.472;6.628;2022-10-16T00:18:34;8.67;;;3.10;;
1258;SDS011;619;51.472;6.628;2022-10-16T00:21:03;5.30;;;2.70;;
1258;SDS011;619;51.472;6.628;2022-10-16T00:23:30;5.70;;;2.97;;
1258;SDS011;619;51.472;6.628;2022-10-16T00:25:57;3.83;;;3.00;;
1258;SDS011;619;51.472;6.628;2022-10-16T00:28:24;5.73;;;3.00;;
1258;SDS011;619;51.472;6.628;2022-10-16T00:30:50;5.20;;;3.13;;
1258;SDS011;619;51.472;6.628;2022-10-16T00:33:21;3.60;;;2.50;;
1258;SDS011;619;51.472;6.628;2022-10-16T00:35:47;6.60;;;2.97;;
1258;SDS011;619;51.472;6.628;2022-10-16T00:38:15;8.43;;;3.13;;
1258;SDS011;619;51.472;6.628;2022-10-16T00:40:43;6.87;;;2.60;;
1258;SDS011;619;51.472;6.628;2022-10-16T00:43:12;4.83;;;2.70;;
1258;SDS011;619;51.472;6.628;2022-10-16T00:45:59;3.57;;;2.70;;
1258;SDS011;619;51.472;6.628;2022-10-16T00:48:26;5.53;;;2.97;;
1258;SDS011;619;51.472;6.628;2022-10-16T00:50:52;4.83;;;2.70;;
1258;SDS011;619;51.472;6.628;2022-10-16T00:53:18;3.60;;;2.33;;
1258;SDS011;619;51.472;6.628;2022-10-16T00:55:44;7.13;;;3.00;;
1258;SDS011;619;51.472;6.628;2022-10-16T00:58:10;4.67;;;2.90;;
1258;SDS011;619;51.472;6.628;2022-10-16T01:00:39;6.30;;;3.07;;
1258;SDS011;619;51.472;6.628;2022-10-16T01:06:02;6.53;;;2.90;;
1258;SDS011;619;51.472;6.628;2022-10-16T01:09:20;3.93;;;3.10;;
1258;SDS011;619;51.472;6.628;2022-10-16T01:11:31;5.63;;;2.53;;
1258;SDS011;619;51.472;6.628;2022-10-16T01:14:27;3.77;;;2.37;;
1258;SDS011;619;51.472;6.628;2022-10-16T01:17:04;3.57;;;2.73;;
1258;SDS011;619;51.472;6.628;2022-10-16T01:22:42;4.50;;;2.70;;
1258;SDS011;619;51.472;6.628;2022-10-16T01:25:25;4.70;;;2.67;;
1258;SDS011;619;51.472;6.628;2022-10-16T01:28:02;6.30;;;2.80;;
1258;SDS011;619;51.472;6.628;2022-10-16T01:30:31;3.33;;;2.30;;
1258;SDS011;619;51.472;6.628;2022-10-16T01:40:32;4.00;;;2.00;;
1258;SDS011;619;51.472;6.628;2022-10-16T01:43:35;5.70;;;2.57;;
1258;SDS011;619;51.472;6.628;2022-10-16T01:45:56;4.10;;;2.47;;
1258;SDS011;619;51.472;6.628;2022-10-16T01:48:25;4.43;;;2.60;;
1258;SDS011;619;51.472;6.628;2022-10-16T01:51:06;5.87;;;3.07;;
1258;SDS011;619;51.472;6.628;2022-10-16T01:53:37;7.00;;;3.17;;
1258;SDS011;619;51.472;6.628;2022-10-16T01:56:08;4.80;;;3.10;;
1258;SDS011;619;51.472;6.628;2022-10-16T01:58:38;7.30;;;2.60;;
1258;SDS011;619;51.472;6.628;2022-10-16T02:01:12;3.93;;;2.90;;
1258;SDS011;619;51.472;6.628;2022-10-16T02:03:41;4.90;;;2.73;;
1258;SDS011;619;51.472;6.628;2022-10-16T02:06:09;4.83;;;2.83;;
1258;SDS011;619;51.472;6.628;2022-10-16T02:08:37;5.30;;;2.97;;
1258;SDS011;619;51.472;6.628;2022-10-16T02:11:05;4.23;;;2.50;;
1258;SDS011;619;51.472;6.628;2022-10-16T02:13:36;3.60;;;2.63;;
1258;SDS011;619;51.472;6.628;2022-10-16T02:16:03;6.77;;;2.80;;
1258;SDS011;619;51.472;6.628;2022-10-16T02:18:28;4.27;;;2.50;;
1258;SDS011;619;51.472;6.628;2022-10-16T02:23:31;3.10;;;2.23;;
1258;SDS011;619;51.472;6.628;2022-10-16T02:26:06;4.20;;;2.00;;
1258;SDS011;619;51.472;6.628;2022-10-16T02:28:40;2.93;;;2.23;;
1258;SDS011;619;51.472;6.628;2022-10-16T02:31:10;2.77;;;2.13;;
1258;SDS011;619;51.472;6.628;2022-10-16T02:33:40;3.47;;;1.83;;
1258;SDS011;619;51.472;6.628;2022-10-16T02:36:09;1.77;;;1.53;;
1258;SDS011;619;51.472;6.628;2022-10-16T02:38:35;2.93;;;2.30;;
1258;SDS011;619;51.472;6.628;2022-10-16T02:41:04;2.60;;;1.90;;
1258;SDS011;619;51.472;6.628;2022-10-16T02:43:30;6.00;;;2.23;;
1258;SDS011;619;51.472;6.628;2022-10-16T02:45:59;3.80;;;2.00;;
1258;SDS011;619;51.472;6.628;2022-10-16T02:48:24;7.27;;;2.47;;
1258;SDS011;619;51.472;6.628;2022-10-16T02:50:52;2.13;;;1.80;;
1258;SDS011;619;51.472;6.628;2022-10-16T02:53:18;5.30;;;1.83;;
1258;SDS011;619;51.472;6.628;2022-10-16T02:55:46;2.10;;;1.53;;
1258;SDS011;619;51.472;6.628;2022-10-16T02:58:12;6.77;;;2.00;;
1258;SDS011;619;51.472;6.628;2022-10-16T03:00:37;3.53;;;1.57;;
1258;SDS011;619;51.472;6.628;2022-10-16T03:03:03;4.50;;;2.10;;
1258;SDS011;619;51.472;6.628;2022-10-16T03:05:29;2.30;;;1.43;;
1258;SDS011;619;51.472;6.628;2022-10-16T03:07:54;2.40;;;1.50;;
1258;SDS011;619;51.472;6.628;2022-10-16T03:10:20;3.43;;;1.43;;
1258;SDS011;619;51.472;6.628;2022-10-16T03:12:51;2.27;;;1.80;;
1258;SDS011;619;51.472;6.628;2022-10-16T03:15:16;1.70;;;1.30;;
1258;SDS011;619;51.472;6.628;2022-10-16T03:17:44;3.17;;;1.70;;
1258;SDS011;619;51.472;6.628;2022-10-16T03:20:12;4.80;;;1.70;;
1258;SDS011;619;51.472;6.628;2022-10-16T03:22:38;4.90;;;1.60;;
1258;SDS011;619;51.472;6.628;2022-10-16T03:25:04;6.33;;;1.37;;
1258;SDS011;619;51.472;6.628;2022-10-16T03:27:33;2.67;;;1.80;;
1258;SDS011;619;51.472;6.628;2022-10-16T03:29:58;4.10;;;1.80;;
1258;SDS011;619;51.472;6.628;2022-10-16T03:32:26;2.93;;;1.40;;
1258;SDS011;619;51.472;6.628;2022-10-16T03:34:53;1.90;;;1.23;;
1258;SDS011;619;51.472;6.628;2022-10-16T03:37:19;1.87;;;1.10;;
1258;SDS011;619;51.472;6.628;2022-10-16T03:39:47;2.67;;;1.30;;
1258;SDS011;619;51.472;6.628;2022-10-16T03:42:12;2.40;;;1.23;;
1258;SDS011;619;51.472;6.628;2022-10-16T03:44:38;2.50;;;1.60;;
1258;SDS011;619;51.472;6.628;2022-10-16T03:47:03;2.47;;;1.13;;
1258;SDS011;619;51.472;6.628;2022-10-16T03:49:29;2.80;;;1.13;;
1258;SDS011;619;51.472;6.628;2022-10-16T03:51:57;2.47;;;1.47;;
1258;SDS011;619;51.472;6.628;2022-10-16T03:54:23;2.40;;;1.50;;
1258;SDS011;619;51.472;6.628;2022-10-16T03:56:48;2.70;;;1.50;;
1258;SDS011;619;51.472;6.628;2022-10-16T03:59:14;2.43;;;1.60;;
1258;SDS011;619;51.472;6.628;2022-10-16T04:01:42;2.67;;;1.50;;
1258;SDS011;619;51.472;6.628;2022-10-16T04:04:07;1.80;;;1.57;;
1258;SDS011;619;51.472;6.628;2022-10-16T04:06:33;1.90;;;1.30;;
1258;SDS011;619;51.472;6.628;2022-10-16T04:09:01;5.23;;;1.37;;
1258;SDS011;619;51.472;6.628;2022-10-16T04:11:26;2.53;;;1.50;;
1258;SDS011;619;51.472;6.628;2022-10-16T04:13:52;2.03;;;0.90;;
1258;SDS011;619;51.472;6.628;2022-10-16T04:16:18;2.13;;;1.20;;
1258;SDS011;619;51.472;6.628;2022-10-16T04:18:43;2.80;;;1.27;;
1258;SDS011;619;51.472;6.628;2022-10-16T04:21:09;2.30;;;1.00;;
1258;SDS011;619;51.472;6.628;2022-10-16T04:23:35;1.67;;;1.13;;
1258;SDS011;619;51.472;6.628;2022-10-16T04:26:00;1.90;;;1.40;;
1258;SDS011;619;51.472;6.628;2022-10-16T04:28:26;2.77;;;1.20;;
1258;SDS011;619;51.472;6.628;2022-10-16T04:30:54;4.40;;;1.53;;
1258;SDS011;619;51.472;6.628;2022-10-16T04:33:20;2.17;;;1.07;;
1258;SDS011;619;51.472;6.628;2022-10-16T04:35:46;3.00;;;1.60;;
1258;SDS011;619;51.472;6.628;2022-10-16T04:38:11;1.60;;;1.10;;
1258;SDS011;619;51.472;6.628;2022-10-16T04:40:37;2.10;;;1.00;;
1258;SDS011;619;51.472;6.628;2022-10-16T04:43:03;1.70;;;1.13;;
1258;SDS011;619;51.472;6.628;2022-10-16T04:45:32;5.93;;;1.10;;
1258;SDS011;619;51.472;6.628;2022-10-16T04:47:58;4.07;;;1.43;;
1258;SDS011;619;51.472;6.628;2022-10-16T04:50:26;1.70;;;0.97;;
1258;SDS011;619;51.472;6.628;2022-10-16T04:52:51;3.80;;;1.37;;
1258;SDS011;619;51.472;6.628;2022-10-16T04:55:19;3.30;;;1.20;;
1258;SDS011;619;51.472;6.628;2022-10-16T04:57:45;5.43;;;1.90;;
1258;SDS011;619;51.472;6.628;2022-10-16T05:00:13;3.40;;;1.10;;
1258;SDS011;619;51.472;6.628;2022-10-16T05:02:40;1.17;;;0.90;;
1258;SDS011;619;51.472;6.628;2022-10-16T05:05:06;1.60;;;1.20;;
1258;SDS011;619;51.472;6.628;2022-10-16T05:07:32;3.23;;;1.20;;
1258;SDS011;619;51.472;6.628;2022-10-16T05:10:00;1.40;;;1.07;;
1258;SDS011;619;51.472;6.628;2022-10-16T05:12:25;2.80;;;1.20;;
1258;SDS011;619;51.472;6.628;2022-10-16T05:14:54;2.87;;;1.60;;
1258;SDS011;619;51.472;6.628;2022-10-16T05:17:23;4.17;;;0.90;;
1258;SDS011;619;51.472;6.628;2022-10-16T05:19:50;1.77;;;1.00;;
1258;SDS011;619;51.472;6.628;2022-10-16T05:22:15;4.23;;;1.17;;
1258;SDS011;619;51.472;6.628;2022-10-16T05:24:41;1.70;;;1.40;;
1258;SDS011;619;51.472;6.628;2022-10-16T05:27:07;1.30;;;1.10;;
1258;SDS011;619;51.472;6.628;2022-10-16T05:29:35;2.13;;;1.37;;
1258;SDS011;619;51.472;6.628;2022-10-16T05:32:01;1.50;;;1.00;;
1258;SDS011;619;51.472;6.628;2022-10-16T05:34:27;1.93;;;1.30;;
1258;SDS011;619;51.472;6.628;2022-10-16T05:36:52;3.83;;;1.30;;
1258;SDS011;619;51.472;6.628;2022-10-16T05:39:18;2.37;;;1.27;;
1258;SDS011;619;51.472;6.628;2022-10-16T05:41:44;3.43;;;1.40;;
1258;SDS011;619;51.472;6.628;2022-10-16T05:44:14;6.63;;;1.40;;
1258;SDS011;619;51.472;6.628;2022-10-16T05:46:39;1.97;;;1.20;;
1258;SDS011;619;51.472;6.628;2022-10-16T05:49:05;3.00;;;1.20;;
1258;SDS011;619;51.472;6.628;2022-10-16T05:51:31;4.40;;;0.97;;
1258;SDS011;619;51.472;6.628;2022-10-16T05:53:56;3.13;;;1.47;;
1258;SDS011;619;51.472;6.628;2022-10-16T05:56:22;2.47;;;1.50;;
1258;SDS011;619;51.472;6.628;2022-10-16T05:58:47;2.80;;;1.27;;
1258;SDS011;619;51.472;6.628;2022-10-16T06:01:14;2.23;;;1.30;;
1258;SDS011;619;51.472;6.628;2022-10-16T06:03:41;3.70;;;1.40;;
1258;SDS011;619;51.472;6.628;2022-10-16T06:06:13;2.43;;;1.20;;
1258;SDS011;619;51.472;6.628;2022-10-16T06:08:43;1.43;;;1.30;;
1258;SDS011;619;51.472;6.628;2022-10-16T06:11:14;1.57;;;1.33;;
1258;SDS011;619;51.472;6.628;2022-10-16T06:13:48;2.13;;;1.70;;
1258;SDS011;619;51.472;6.628;2022-10-16T06:16:21;2.23;;;1.53;;
1258;SDS011;619;51.472;6.628;2022-10-16T06:18:53;1.60;;;1.20;;
1258;SDS011;619;51.472;6.628;2022-10-16T06:21:21;1.97;;;1.30;;
1258;SDS011;619;51.472;6.628;2022-10-16T06:23:49;3.50;;;1.63;;
1258;SDS011;619;51.472;6.628;2022-10-16T06:26:20;4.50;;;1.30;;
1258;SDS011;619;51.472;6.628;2022-10-16T06:28:47;2.73;;;1.47;;
1258;SDS011;619;51.472;6.628;2022-10-16T06:31:16;3.70;;;1.93;;
1258;SDS011;619;51.472;6.628;2022-10-16T06:33:44;2.70;;;1.50;;
1258;SDS011;619;51.472;6.628;2022-10-16T06:36:13;2.97;;;1.97;;
1258;SDS011;619;51.472;6.628;2022-10-16T06:38:42;3.53;;;1.73;;
1258;SDS011;619;51.472;6.628;2022-10-16T06:41:11;2.53;;;1.50;;
1258;SDS011;619;51.472;6.628;2022-10-16T06:43:44;5.97;;;1.80;;
1258;SDS011;619;51.472;6.628;2022-10-16T06:46:11;3.67;;;1.57;;
1258;SDS011;619;51.472;6.628;2022-10-16T06:48:38;2.13;;;1.33;;
1258;SDS011;619;51.472;6.628;2022-10-16T06:51:16;4.07;;;1.70;;
1258;SDS011;619;51.472;6.628;2022-10-16T06:53:44;2.13;;;1.60;;
1258;SDS011;619;51.472;6.628;2022-10-16T06:58:45;3.03;;;2.00;;
1258;SDS011;619;51.472;6.628;2022-10-16T07:01:17;4.50;;;2.60;;
1258;SDS011;619;51.472;6.628;2022-10-16T07:03:49;2.07;;;1.87;;
1258;SDS011;619;51.472;6.628;2022-10-16T07:06:15;4.80;;;1.70;;
1258;SDS011;619;51.472;6.628;2022-10-16T07:08:45;4.73;;;2.37;;
1258;SDS011;619;51.472;6.628;2022-10-16T07:11:17;4.17;;;2.17;;
1258;SDS011;619;51.472;6.628;2022-10-16T07:13:45;3.50;;;1.87;;
1258;SDS011;619;51.472;6.628;2022-10-16T07:16:15;3.13;;;1.90;;
1258;SDS011;619;51.472;6.628;2022-10-16T07:18:43;4.67;;;2.97;;
1258;SDS011;619;51.472;6.628;2022-10-16T07:21:30;5.00;;;3.10;;
1258;SDS011;619;51.472;6.628;2022-10-16T07:24:00;3.13;;;2.10;;
1258;SDS011;619;51.472;6.628;2022-10-16T07:26:27;4.13;;;2.40;;
1258;SDS011;619;51.472;6.628;2022-10-16T07:28:54;3.30;;;1.90;;
1258;SDS011;619;51.472;6.628;2022-10-16T07:31:21;2.00;;;1.73;;
1258;SDS011;619;51.472;6.628;2022-10-16T07:33:49;4.23;;;1.87;;
1258;SDS011;619;51.472;6.628;2022-10-16T07:36:15;4.63;;;2.40;;
1258;SDS011;619;51.472;6.628;2022-10-16T07:38:43;1.67;;;1.53;;
1258;SDS011;619;51.472;6.628;2022-10-16T07:41:13;4.90;;;2.20;;
1258;SDS011;619;51.472;6.628;2022-10-16T07:43:40;2.93;;;2.23;;
1258;SDS011;619;51.472;6.628;2022-10-16T07:46:24;4.43;;;2.00;;
1258;SDS011;619;51.472;6.628;2022-10-16T07:48:50;4.30;;;2.47;;
1258;SDS011;619;51.472;6.628;2022-10-16T07:51:20;6.03;;;2.03;;
1258;SDS011;619;51.472;6.628;2022-10-16T07:53:52;3.97;;;2.57;;
1258;SDS011;619;51.472;6.628;2022-10-16T07:56:20;4.57;;;2.20;;
1258;SDS011;619;51.472;6.628;2022-10-16T07:58:46;3.33;;;2.47;;
1258;SDS011;619;51.472;6.628;2022-10-16T08:01:15;5.00;;;2.10;;
1258;SDS011;619;51.472;6.628;2022-10-16T08:03:42;3.13;;;2.30;;
1258;SDS011;619;51.472;6.628;2022-10-16T08:06:11;5.53;;;1.97;;
1258;SDS011;619;51.472;6.628;2022-10-16T08:08:37;4.07;;;1.70;;
1258;SDS011;619;51.472;6.628;2022-10-16T08:11:08;5.80;;;2.47;;
1258;SDS011;619;51.472;6.628;2022-10-16T08:13:34;3.20;;;1.70;;
1258;SDS011;619;51.472;6.628;2022-10-16T08:16:00;3.40;;;1.97;;
1258;SDS011;619;51.472;6.628;2022-10-16T08:18:26;5.90;;;2.30;;
1258;SDS011;619;51.472;6.628;2022-10-16T08:20:57;4.93;;;1.90;;
1258;SDS011;619;51.472;6.628;2022-10-16T08:23:27;3.50;;;1.90;;
1258;SDS011;619;51.472;6.628;2022-10-16T08:25:56;2.10;;;1.90;;
1258;SDS011;619;51.472;6.628;2022-10-16T08:28:28;3.47;;;1.70;;
1258;SDS011;619;51.472;6.628;2022-10-16T08:30:56;5.90;;;1.90;;
1258;SDS011;619;51.472;6.628;2022-10-16T08:33:30;3.50;;;1.90;;
1258;SDS011;619;51.472;6.628;2022-10-16T08:35:55;4.13;;;2.00;;
1258;SDS011;619;51.472;6.628;2022-10-16T08:38:21;8.03;;;2.20;;
1258;SDS011;619;51.472;6.628;2022-10-16T08:40:47;5.10;;;1.90;;
1258;SDS011;619;51.472;6.628;2022-10-16T08:43:19;4.03;;;1.93;;
1258;SDS011;619;51.472;6.628;2022-10-16T08:51:08;6.33;;;2.07;;
1258;SDS011;619;51.472;6.628;2022-10-16T08:53:41;2.90;;;1.80;;
1258;SDS011;619;51.472;6.628;2022-10-16T08:56:11;2.53;;;1.77;;
1258;SDS011;619;51.472;6.628;2022-10-16T08:58:37;7.13;;;1.93;;
1258;SDS011;619;51.472;6.628;2022-10-16T09:01:11;2.80;;;1.30;;
1258;SDS011;619;51.472;6.628;2022-10-16T09:17:30;1.90;;;1.70;;
1258;SDS011;619;51.472;6.628;2022-10-16T09:20:05;17.53;;;1.97;;
1258;SDS011;619;51.472;6.628;2022-10-16T09:22:46;2.77;;;1.50;;
1258;SDS011;619;51.472;6.628;2022-10-16T09:25:13;3.60;;;1.40;;
1258;SDS011;619;51.472;6.628;2022-10-16T09:27:44;3.00;;;1.47;;
1258;SDS011;619;51.472;6.628;2022-10-16T09:30:13;3.53;;;1.70;;
1258;SDS011;619;51.472;6.628;2022-10-16T09:32:41;1.70;;;1.10;;
1258;SDS011;619;51.472;6.628;2022-10-16T09:35:55;5.63;;;1.50;;
1258;SDS011;619;51.472;6.628;2022-10-16T09:38:06;3.17;;;1.80;;
1258;SDS011;619;51.472;6.628;2022-10-16T09:40:33;5.97;;;1.53;;
1258;SDS011;619;51.472;6.628;2022-10-16T09:43:18;4.23;;;1.53;;
1258;SDS011;619;51.472;6.628;2022-10-16T09:48:31;5.03;;;1.67;;
1258;SDS011;619;51.472;6.628;2022-10-16T09:51:19;2.00;;;1.10;;
1258;SDS011;619;51.472;6.628;2022-10-16T09:53:53;3.20;;;1.50;;
1258;SDS011;619;51.472;6.628;2022-10-16T09:56:25;3.03;;;1.13;;
1258;SDS011;619;51.472;6.628;2022-10-16T09:58:55;3.57;;;1.43;;
1258;SDS011;619;51.472;6.628;2022-10-16T10:01:24;2.60;;;1.83;;
1258;SDS011;619;51.472;6.628;2022-10-16T10:04:03;8.17;;;3.20;;
1258;SDS011;619;51.472;6.628;2022-10-16T10:06:30;2.07;;;1.23;;
1258;SDS011;619;51.472;6.628;2022-10-16T10:16:48;1.73;;;1.27;;
1258;SDS011;619;51.472;6.628;2022-10-16T10:19:16;2.67;;;1.10;;
1258;SDS011;619;51.472;6.628;2022-10-16T10:21:46;1.60;;;0.87;;
1258;SDS011;619;51.472;6.628;2022-10-16T10:24:16;2.70;;;1.13;;
1258;SDS011;619;51.472;6.628;2022-10-16T10:26:51;4.03;;;0.90;;
1258;SDS011;619;51.472;6.628;2022-10-16T10:32:32;2.63;;;1.10;;
1258;SDS011;619;51.472;6.628;2022-10-16T10:46:25;3.80;;;1.50;;
1258;SDS011;619;51.472;6.628;2022-10-16T10:57:22;1.87;;;1.33;;
1258;SDS011;619;51.472;6.628;2022-10-16T11:05:49;4.60;;;1.77;;
1258;SDS011;619;51.472;6.628;2022-10-16T11:08:35;2.97;;;1.40;;
1258;SDS011;619;51.472;6.628;2022-10-16T11:11:32;4.10;;;1.27;;
1258;SDS011;619;51.472;6.628;2022-10-16T11:14:08;1.70;;;1.00;;
1258;SDS011;619;51.472;6.628;2022-10-16T11:25:26;4.57;;;3.03;;
1258;SDS011;619;51.472;6.628;2022-10-16T11:31:00;4.97;;;1.47;;
1258;SDS011;619;51.472;6.628;2022-10-16T11:36:06;4.60;;;1.30;;
1258;SDS011;619;51.472;6.628;2022-10-16T11:38:35;1.93;;;1.03;;
1258;SDS011;619;51.472;6.628;2022-10-16T11:41:27;2.80;;;1.10;;
1258;SDS011;619;51.472;6.628;2022-10-16T11:44:09;5.20;;;1.30;;
1258;SDS011;619;51.472;6.628;2022-10-16T11:46:43;1.53;;;1.00;;
1258;SDS011;619;51.472;6.628;2022-10-16T11:49:16;3.67;;;1.20;;
1258;SDS011;619;51.472;6.628;2022-10-16T11:54:43;3.43;;;1.37;;
1258;SDS011;619;51.472;6.628;2022-10-16T11:57:13;2.83;;;1.20;;
1258;SDS011;619;51.472;6.628;2022-10-16T11:59:48;1.97;;;0.90;;
1258;SDS011;619;51.472;6.628;2022-10-16T12:08:14;1.77;;;1.00;;
1258;SDS011;619;51.472;6.628;2022-10-16T12:10:43;4.60;;;1.40;;
1258;SDS011;619;51.472;6.628;2022-10-16T12:13:29;3.80;;;1.37;;
1258;SDS011;619;51.472;6.628;2022-10-16T12:18:36;2.60;;;1.50;;
1258;SDS011;619;51.472;6.628;2022-10-16T12:21:02;1.60;;;1.20;;
1258;SDS011;619;51.472;6.628;2022-10-16T12:23:46;3.40;;;1.30;;
1258;SDS011;619;51.472;6.628;2022-10-16T12:26:29;3.27;;;1.50;;
1258;SDS011;619;51.472;6.628;2022-10-16T12:29:12;3.10;;;1.20;;
1258;SDS011;619;51.472;6.628;2022-10-16T12:31:45;2.50;;;1.17;;
1258;SDS011;619;51.472;6.628;2022-10-16T12:34:28;5.20;;;1.20;;
1258;SDS011;619;51.472;6.628;2022-10-16T12:36:54;2.37;;;1.10;;
1258;SDS011;619;51.472;6.628;2022-10-16T12:39:34;2.80;;;1.20;;
1258;SDS011;619;51.472;6.628;2022-10-16T12:42:06;2.60;;;0.97;;
1258;SDS011;619;51.472;6.628;2022-10-16T12:44:54;5.53;;;1.33;;
1258;SDS011;619;51.472;6.628;2022-10-16T12:47:35;4.10;;;1.10;;
1258;SDS011;619;51.472;6.628;2022-10-16T12:50:23;2.30;;;1.10;;
1258;SDS011;619;51.472;6.628;2022-10-16T12:53:19;3.27;;;1.30;;
1258;SDS011;619;51.472;6.628;2022-10-16T13:01:03;3.13;;;1.17;;
1258;SDS011;619;51.472;6.628;2022-10-16T13:26:00;4.10;;;1.90;;
1258;SDS011;619;51.472;6.628;2022-10-16T13:28:45;6.03;;;3.43;;
1258;SDS011;619;51.472;6.628;2022-10-16T13:31:21;2.90;;;1.30;;
1258;SDS011;619;51.472;6.628;2022-10-16T13:33:58;4.40;;;0.97;;
1258;SDS011;619;51.472;6.628;2022-10-16T13:36:35;3.37;;;1.37;;
1258;SDS011;619;51.472;6.628;2022-10-16T13:39:22;2.27;;;0.93;;
1258;SDS011;619;51.472;6.628;2022-10-16T13:44:43;3.17;;;0.97;;
1258;SDS011;619;51.472;6.628;2022-10-16T13:47:22;3.17;;;1.00;;
1258;SDS011;619;51.472;6.628;2022-10-16T13:50:03;2.20;;;1.00;;
1258;SDS011;619;51.472;6.628;2022-10-16T13:52:31;3.60;;;1.20;;
1258;SDS011;619;51.472;6.628;2022-10-16T13:54:59;2.17;;;0.93;;
1258;SDS011;619;51.472;6.628;2022-10-16T13:57:25;2.00;;;1.00;;
1258;SDS011;619;51.472;6.628;2022-10-16T13:59:53;2.73;;;1.03;;
1258;SDS011;619;51.472;6.628;2022-10-16T14:02:29;4.73;;;1.33;;
1258;SDS011;619;51.472;6.628;2022-10-16T14:05:00;2.50;;;0.90;;
1258;SDS011;619;51.472;6.628;2022-10-16T14:07:29;1.60;;;0.97;;
1258;SDS011;619;51.472;6.628;2022-10-16T14:10:04;4.77;;;2.40;;
1258;SDS011;619;51.472;6.628;2022-10-16T14:12:32;3.00;;;1.53;;
1258;SDS011;619;51.472;6.628;2022-10-16T14:15:01;1.73;;;1.20;;
1258;SDS011;619;51.472;6.628;2022-10-16T14:17:28;2.93;;;1.20;;
1258;SDS011;619;51.472;6.628;2022-10-16T14:19:59;3.43;;;1.40;;
1258;SDS011;619;51.472;6.628;2022-10-16T14:22:28;3.73;;;1.40;;
1258;SDS011;619;51.472;6.628;2022-10-16T14:24:59;2.97;;;1.30;;
1258;SDS011;619;51.472;6.628;2022-10-16T14:27:29;2.43;;;1.53;;
1258;SDS011;619;51.472;6.628;2022-10-16T14:32:36;2.67;;;1.20;;
1258;SDS011;619;51.472;6.628;2022-10-16T14:35:01;3.80;;;1.40;;
1258;SDS011;619;51.472;6.628;2022-10-16T14:37:28;1.97;;;0.93;;
1258;SDS011;619;51.472;6.628;2022-10-16T14:39:55;2.43;;;1.30;;
1258;SDS011;619;51.472;6.628;2022-10-16T14:42:31;4.13;;;1.40;;
1258;SDS011;619;51.472;6.628;2022-10-16T14:44:56;4.50;;;1.37;;
1258;SDS011;619;51.472;6.628;2022-10-16T14:47:23;2.60;;;1.20;;
1258;SDS011;619;51.472;6.628;2022-10-16T14:49:53;5.70;;;1.23;;
1258;SDS011;619;51.472;6.628;2022-10-16T14:52:21;4.37;;;1.37;;
1258;SDS011;619;51.472;6.628;2022-10-16T14:54:49;4.73;;;1.37;;
1258;SDS011;619;51.472;6.628;2022-10-16T14:57:20;7.63;;;4.90;;
1258;SDS011;619;51.472;6.628;2022-10-16T14:59:48;5.93;;;2.50;;
1258;SDS011;619;51.472;6.628;2022-10-16T15:02:25;2.80;;;1.60;;
1258;SDS011;619;51.472;6.628;2022-10-16T15:04:57;3.47;;;1.83;;
1258;SDS011;619;51.472;6.628;2022-10-16T15:07:30;6.90;;;2.20;;
1258;SDS011;619;51.472;6.628;2022-10-16T15:09:56;3.03;;;1.90;;
1258;SDS011;619;51.472;6.628;2022-10-16T15:12:22;4.97;;;2.13;;
1258;SDS011;619;51.472;6.628;2022-10-16T15:14:48;3.97;;;2.00;;
1258;SDS011;619;51.472;6.628;2022-10-16T15:17:13;4.27;;;1.90;;
1258;SDS011;619;51.472;6.628;2022-10-16T15:19:41;5.10;;;1.97;;
1258;SDS011;619;51.472;6.628;2022-10-16T15:22:08;4.73;;;2.10;;
1258;SDS011;619;51.472;6.628;2022-10-16T15:24:36;5.83;;;2.43;;
1258;SDS011;619;51.472;6.628;2022-10-16T15:27:04;3.40;;;1.60;;
1258;SDS011;619;51.472;6.628;2022-10-16T15:29:30;3.20;;;2.13;;
1258;SDS011;619;51.472;6.628;2022-10-16T15:31:57;3.50;;;1.90;;
1258;SDS011;619;51.472;6.628;2022-10-16T15:34:23;2.37;;;1.87;;
1258;SDS011;619;51.472;6.628;2022-10-16T15:36:48;3.83;;;2.70;;
1258;SDS011;619;51.472;6.628;2022-10-16T15:41:41;7.40;;;2.23;;
1258;SDS011;619;51.472;6.628;2022-10-16T15:44:15;6.17;;;1.83;;
1258;SDS011;619;51.472;6.628;2022-10-16T15:46:44;4.50;;;2.03;;
1258;SDS011;619;51.472;6.628;2022-10-16T15:49:10;3.10;;;2.50;;
1258;SDS011;619;51.472;6.628;2022-10-16T15:51:40;6.63;;;2.00;;
1258;SDS011;619;51.472;6.628;2022-10-16T15:54:06;4.70;;;2.70;;
1258;SDS011;619;51.472;6.628;2022-10-16T15:56:32;3.43;;;3.13;;
1258;SDS011;619;51.472;6.628;2022-10-16T15:58:58;8.00;;;3.37;;
1258;SDS011;619;51.472;6.628;2022-10-16T16:01:25;8.20;;;3.50;;
1258;SDS011;619;51.472;6.628;2022-10-16T16:03:54;4.27;;;3.13;;
1258;SDS011;619;51.472;6.628;2022-10-16T16:06:23;4.23;;;3.20;;
1258;SDS011;619;51.472;6.628;2022-10-16T16:08:51;6.43;;;3.40;;
1258;SDS011;619;51.472;6.628;2022-10-16T16:11:18;10.00;;;3.40;;
1258;SDS011;619;51.472;6.628;2022-10-16T16:13:44;4.13;;;2.70;;
1258;SDS011;619;51.472;6.628;2022-10-16T16:16:13;6.10;;;3.20;;
1258;SDS011;619;51.472;6.628;2022-10-16T16:18:42;6.87;;;3.20;;
1258;SDS011;619;51.472;6.628;2022-10-16T16:21:10;5.17;;;3.40;;
1258;SDS011;619;51.472;6.628;2022-10-16T16:23:38;7.60;;;3.30;;
1258;SDS011;619;51.472;6.628;2022-10-16T16:28:38;9.10;;;3.70;;
1258;SDS011;619;51.472;6.628;2022-10-16T16:31:09;6.30;;;2.67;;
1258;SDS011;619;51.472;6.628;2022-10-16T16:33:35;7.73;;;2.97;;
1258;SDS011;619;51.472;6.628;2022-10-16T16:36:01;4.17;;;2.30;;
1258;SDS011;619;51.472;6.628;2022-10-16T16:38:33;8.10;;;4.67;;
1258;SDS011;619;51.472;6.628;2022-10-16T16:41:14;7.03;;;4.70;;
1258;SDS011;619;51.472;6.628;2022-10-16T16:43:51;6.53;;;3.03;;
1258;SDS011;619;51.472;6.628;2022-10-16T16:46:19;10.10;;;4.20;;
1258;SDS011;619;51.472;6.628;2022-10-16T16:48:48;4.40;;;2.40;;
1258;SDS011;619;51.472;6.628;2022-10-16T16:51:20;5.80;;;2.83;;
1258;SDS011;619;51.472;6.628;2022-10-16T16:53:49;4.53;;;3.07;;
1258;SDS011;619;51.472;6.628;2022-10-16T16:56:16;3.43;;;2.97;;
1258;SDS011;619;51.472;6.628;2022-10-16T16:58:49;4.90;;;2.73;;
1258;SDS011;619;51.472;6.628;2022-10-16T17:01:17;5.63;;;2.80;;
1258;SDS011;619;51.472;6.628;2022-10-16T17:03:43;3.80;;;2.63;;
1258;SDS011;619;51.472;6.628;2022-10-16T17:06:14;4.63;;;2.90;;
1258;SDS011;619;51.472;6.628;2022-10-16T17:08:42;6.40;;;3.10;;
1258;SDS011;619;51.472;6.628;2022-10-16T17:11:15;3.27;;;2.43;;
1258;SDS011;619;51.472;6.628;2022-10-16T17:13:43;6.93;;;3.67;;
1258;SDS011;619;51.472;6.628;2022-10-16T17:16:09;5.33;;;3.27;;
1258;SDS011;619;51.472;6.628;2022-10-16T17:18:40;7.50;;;3.73;;
1258;SDS011;619;51.472;6.628;2022-10-16T17:21:08;5.23;;;3.20;;
1258;SDS011;619;51.472;6.628;2022-10-16T17:23:38;5.10;;;3.33;;
1258;SDS011;619;51.472;6.628;2022-10-16T17:26:10;7.00;;;3.60;;
1258;SDS011;619;51.472;6.628;2022-10-16T17:28:38;4.13;;;3.27;;
1258;SDS011;619;51.472;6.628;2022-10-16T17:31:08;10.57;;;9.60;;
1258;SDS011;619;51.472;6.628;2022-10-16T17:33:33;5.60;;;3.80;;
1258;SDS011;619;51.472;6.628;2022-10-16T17:35:59;5.10;;;3.80;;
1258;SDS011;619;51.472;6.628;2022-10-16T17:38:27;9.03;;;6.80;;
1258;SDS011;619;51.472;6.628;2022-10-16T17:40:52;8.10;;;4.90;;
1258;SDS011;619;51.472;6.628;2022-10-16T17:43:20;5.23;;;4.47;;
1258;SDS011;619;51.472;6.628;2022-10-16T17:45:48;5.03;;;3.63;;
1258;SDS011;619;51.472;6.628;2022-10-16T17:48:16;4.30;;;3.93;;
1258;SDS011;619;51.472;6.628;2022-10-16T17:50:44;5.30;;;3.63;;
1258;SDS011;619;51.472;6.628;2022-10-16T17:53:10;6.70;;;3.40;;
1258;SDS011;619;51.472;6.628;2022-10-16T17:55:41;3.40;;;2.60;;
1258;SDS011;619;51.472;6.628;2022-10-16T17:58:09;3.70;;;3.37;;
1258;SDS011;619;51.472;6.628;2022-10-16T18:00:35;7.83;;;2.67;;
1258;SDS011;619;51.472;6.628;2022-10-16T18:03:05;3.73;;;2.77;;
1258;SDS011;619;51.472;6.628;2022-10-16T18:05:34;5.17;;;3.10;;
1258;SDS011;619;51.472;6.628;2022-10-16T18:08:02;5.70;;;2.30;;